Aviation Digital Data Service (ADDS)

Output produced by METARs form (2039 UTC 27 November 2014)
found at http://aviationweather.gov/adds/metars/
 
KDEN 271854Z 2719/2824 28013G25KT P6SM FEW150 BKN200 
     FM272300 25013KT P6SM SCT120 BKN200 
     FM280200 21011KT P6SM FEW120 BKN200